Time;durP1;ratioP1;P1;durP2;ratioP2;P2;SDS_P1;SDS_P2;PMS_P1;PMS_P2;Temp;Humidity;BMP_temperature;BMP_pressure;BME280_temperature;BME280_humidity;BME280_pressure;Samples;Min_cycle;Max_cycle;Signal;HPM_P1;HPM_P2
2021/10/17 00:00:01;;;;;;;15.23;9.18;;;10.10;99.90;;;;;;5036019;28;20123;-72
2021/10/17 00:02:26;;;;;;;15.10;8.38;;;10.10;99.90;;;;;;5051194;28;20383;-72
2021/10/17 00:04:52;;;;;;;13.23;7.82;;;10.00;99.90;;;;;;5051661;28;20082;-72
2021/10/17 00:07:21;;;;;;;14.90;8.10;;;10.00;99.90;;;;;;5050800;28;20041;-72
2021/10/17 00:09:47;;;;;;;15.85;8.88;;;10.00;99.90;;;;;;5052191;28;20044;-72
2021/10/17 00:12:13;;;;;;;13.40;8.10;;;10.00;99.90;;;;;;5049989;28;20048;-72
2021/10/17 00:14:39;;;;;;;15.73;9.13;;;9.90;99.90;;;;;;5031187;28;20045;-72
2021/10/17 00:17:05;;;;;;;16.27;8.50;;;9.90;99.90;;;;;;5035215;28;20033;-72
2021/10/17 00:19:34;;;;;;;16.70;8.48;;;9.90;99.90;;;;;;5051676;28;20040;-72
2021/10/17 00:22:01;;;;;;;16.25;8.57;;;9.90;99.90;;;;;;5052261;28;20044;-72
2021/10/17 00:24:27;;;;;;;15.55;8.20;;;9.90;99.90;;;;;;5050327;28;20098;-72
2021/10/17 00:26:53;;;;;;;14.75;9.15;;;9.90;99.90;;;;;;5048070;28;20049;-72
2021/10/17 00:29:18;;;;;;;13.57;8.13;;;9.80;99.90;;;;;;5051756;28;20049;-72
2021/10/17 00:31:44;;;;;;;12.93;7.70;;;9.80;99.90;;;;;;5051960;28;20083;-72
2021/10/17 00:34:10;;;;;;;14.70;8.60;;;9.80;99.90;;;;;;5051000;28;20048;-71
2021/10/17 00:36:36;;;;;;;13.23;8.90;;;9.70;99.90;;;;;;5035912;28;20048;-71
2021/10/17 00:39:04;;;;;;;16.55;8.95;;;9.80;99.90;;;;;;5051297;28;20078;-71
2021/10/17 00:41:31;;;;;;;15.88;8.32;;;9.70;99.90;;;;;;5034006;28;20123;-72
2021/10/17 00:43:58;;;;;;;13.73;8.23;;;9.70;99.90;;;;;;5033175;28;20044;-71
2021/10/17 00:46:24;;;;;;;14.73;8.70;;;9.70;99.90;;;;;;5034911;28;20597;-71
2021/10/17 00:48:50;;;;;;;14.45;8.82;;;9.60;99.90;;;;;;5052358;28;20060;-71
2021/10/17 00:51:16;;;;;;;15.45;8.80;;;9.60;99.90;;;;;;5035575;28;20106;-72
2021/10/17 00:53:43;;;;;;;12.73;7.93;;;9.60;99.90;;;;;;5034116;28;20056;-72
2021/10/17 00:56:09;;;;;;;14.40;8.32;;;9.50;99.90;;;;;;5031475;28;20364;-72
2021/10/17 00:58:35;;;;;;;13.88;8.95;;;9.50;99.90;;;;;;5031989;28;20033;-71
2021/10/17 01:01:03;;;;;;;16.15;9.05;;;9.50;99.90;;;;;;5034373;28;20546;-72
2021/10/17 01:03:29;;;;;;;13.65;8.40;;;9.50;99.90;;;;;;5033796;28;20123;-71
2021/10/17 01:05:55;;;;;;;15.75;8.55;;;9.50;99.90;;;;;;5050958;28;20048;-71
2021/10/17 01:08:21;;;;;;;14.82;7.97;;;9.50;99.90;;;;;;5051008;28;20510;-71
2021/10/17 01:10:47;;;;;;;15.27;8.35;;;9.50;99.90;;;;;;5034347;28;20044;-72
2021/10/17 01:13:18;;;;;;;14.23;8.52;;;9.50;99.90;;;;;;5033585;28;20105;-71
2021/10/17 01:15:49;;;;;;;15.23;8.48;;;9.50;99.90;;;;;;5050759;28;20040;-71
2021/10/17 01:18:15;;;;;;;15.90;9.00;;;9.50;99.90;;;;;;5050165;28;20048;-71
2021/10/17 01:20:40;;;;;;;13.50;8.40;;;9.40;99.90;;;;;;5067378;28;20030;-72
2021/10/17 01:23:07;;;;;;;13.85;9.07;;;9.60;99.90;;;;;;5051240;28;20052;-71
2021/10/17 01:25:32;;;;;;;13.23;8.65;;;9.60;99.90;;;;;;5049081;28;20040;-71
2021/10/17 01:27:58;;;;;;;16.85;8.52;;;9.60;99.90;;;;;;5050811;28;20044;-71
2021/10/17 01:30:24;;;;;;;17.00;8.77;;;9.70;99.90;;;;;;5033602;28;20045;-71
2021/10/17 01:32:50;;;;;;;16.48;8.88;;;9.70;99.90;;;;;;5050818;28;20099;-71
2021/10/17 01:35:15;;;;;;;13.90;9.15;;;9.70;99.90;;;;;;5050223;28;20036;-72
2021/10/17 01:37:41;;;;;;;14.43;9.30;;;9.70;99.90;;;;;;5034095;28;20048;-71
2021/10/17 01:40:08;;;;;;;15.80;9.52;;;9.70;99.90;;;;;;5050919;28;20029;-71
2021/10/17 01:42:34;;;;;;;15.88;9.38;;;9.70;99.90;;;;;;5049574;28;20055;-71
2021/10/17 01:45:00;;;;;;;13.50;9.43;;;9.60;99.90;;;;;;5048062;28;20519;-72
2021/10/17 01:47:26;;;;;;;15.73;9.63;;;9.80;99.90;;;;;;5049424;28;20041;-72
2021/10/17 01:49:51;;;;;;;14.40;9.52;;;9.70;99.90;;;;;;5033827;28;20230;-71
2021/10/17 01:52:17;;;;;;;15.98;9.93;;;9.70;99.90;;;;;;5046871;28;20052;-71
2021/10/17 01:54:43;;;;;;;16.83;10.30;;;9.80;99.90;;;;;;5030450;28;20102;-71
2021/10/17 01:57:09;;;;;;;16.30;9.40;;;9.70;99.90;;;;;;5030152;28;20119;-71
2021/10/17 01:59:34;;;;;;;15.98;10.07;;;9.70;99.90;;;;;;5029193;28;20068;-71
2021/10/17 02:02:00;;;;;;;20.00;10.95;;;9.70;99.90;;;;;;5028016;28;20057;-70
2021/10/17 02:04:26;;;;;;;17.70;10.70;;;9.80;99.90;;;;;;5009091;28;20065;-71
2021/10/17 02:06:52;;;;;;;18.83;11.52;;;9.70;99.90;;;;;;5046517;28;20056;-70
2021/10/17 02:09:17;;;;;;;17.60;12.00;;;9.70;99.90;;;;;;5030554;28;20113;-71
2021/10/17 02:11:43;;;;;;;17.52;11.98;;;9.70;99.90;;;;;;5029865;28;20045;-71
2021/10/17 02:14:09;;;;;;;15.27;11.77;;;9.70;99.90;;;;;;5028736;28;20028;-71
2021/10/17 02:16:38;;;;;;;18.17;11.73;;;9.70;99.90;;;;;;5046317;28;20032;-71
2021/10/17 02:19:03;;;;;;;16.25;11.10;;;9.60;99.90;;;;;;5013827;28;20048;-71
2021/10/17 02:21:29;;;;;;;17.67;10.90;;;9.60;99.90;;;;;;5010012;28;20029;-71
2021/10/17 02:23:55;;;;;;;15.30;10.45;;;9.50;99.90;;;;;;5030833;28;20053;-71
2021/10/17 02:26:21;;;;;;;18.95;11.50;;;9.50;99.90;;;;;;5028905;28;20037;-71
2021/10/17 02:28:47;;;;;;;17.40;11.55;;;9.50;99.90;;;;;;5030675;28;20052;-71
2021/10/17 02:31:13;;;;;;;17.80;11.43;;;9.50;99.90;;;;;;5045362;28;20056;-71
2021/10/17 02:33:39;;;;;;;17.15;10.90;;;9.50;99.90;;;;;;5046961;28;20079;-71
2021/10/17 02:36:05;;;;;;;17.45;10.80;;;9.40;99.90;;;;;;5025751;28;20077;-71
2021/10/17 02:38:34;;;;;;;17.77;11.30;;;9.50;99.90;;;;;;5030049;28;20162;-71
2021/10/17 02:41:00;;;;;;;16.20;10.95;;;9.40;99.90;;;;;;5030560;28;20380;-71
2021/10/17 02:43:26;;;;;;;16.38;11.10;;;9.40;99.90;;;;;;5045306;28;20033;-71
2021/10/17 02:45:52;;;;;;;15.40;10.35;;;9.40;99.90;;;;;;5043284;28;20142;-71
2021/10/17 02:48:18;;;;;;;18.50;10.82;;;9.40;99.90;;;;;;5011271;28;20178;-71
2021/10/17 02:50:44;;;;;;;19.20;10.73;;;9.40;99.90;;;;;;5046074;28;20049;-71
2021/10/17 02:53:10;;;;;;;16.75;10.32;;;9.40;99.90;;;;;;5045811;28;20048;-71
2021/10/17 02:55:35;;;;;;;19.23;11.60;;;9.40;99.90;;;;;;5029133;28;20064;-71
2021/10/17 02:58:04;;;;;;;14.60;10.20;;;9.40;99.90;;;;;;5010684;28;20072;-72
2021/10/17 03:00:30;;;;;;;17.13;10.23;;;9.40;99.90;;;;;;5028890;28;20047;-71
2021/10/17 03:02:56;;;;;;;16.98;10.13;;;9.40;99.90;;;;;;5045653;28;20036;-71
2021/10/17 03:05:22;;;;;;;17.70;9.45;;;9.40;99.90;;;;;;5044743;28;20048;-72
2021/10/17 03:07:48;;;;;;;13.70;9.82;;;9.40;99.90;;;;;;5010518;28;20377;-72
2021/10/17 03:10:14;;;;;;;14.63;9.40;;;9.40;99.90;;;;;;5028639;28;20071;-71
2021/10/17 03:12:40;;;;;;;14.13;9.38;;;9.40;99.90;;;;;;5028661;28;20079;-72
2021/10/17 03:15:06;;;;;;;16.10;9.55;;;9.40;99.90;;;;;;5043152;28;20072;-71
2021/10/17 03:17:33;;;;;;;12.65;8.63;;;9.50;99.90;;;;;;5012181;28;20036;-72
2021/10/17 03:19:59;;;;;;;15.05;9.45;;;9.50;99.90;;;;;;5029330;28;20136;-71
2021/10/17 03:22:24;;;;;;;13.73;9.60;;;9.50;99.90;;;;;;5026546;28;20123;-72
2021/10/17 03:24:50;;;;;;;16.05;9.73;;;9.50;99.90;;;;;;5050265;28;20049;-72
2021/10/17 03:27:16;;;;;;;16.08;10.35;;;9.50;99.90;;;;;;5042367;28;20040;-72
2021/10/17 03:29:42;;;;;;;16.33;9.88;;;9.50;99.90;;;;;;5028930;28;20088;-72
2021/10/17 03:32:07;;;;;;;19.50;10.85;;;9.50;99.90;;;;;;5029176;28;20122;-72
2021/10/17 03:34:33;;;;;;;16.63;9.45;;;9.50;99.90;;;;;;5028620;28;20048;-72
2021/10/17 03:36:59;;;;;;;18.27;11.32;;;9.50;99.90;;;;;;5045255;28;20110;-72
2021/10/17 03:39:24;;;;;;;19.40;11.13;;;9.40;99.90;;;;;;5045114;28;20091;-72
2021/10/17 03:41:50;;;;;;;17.10;10.25;;;9.40;99.90;;;;;;5028395;28;20048;-72
2021/10/17 03:44:19;;;;;;;16.02;9.52;;;9.40;99.90;;;;;;5045086;28;20423;-72
2021/10/17 03:46:44;;;;;;;16.45;9.50;;;9.40;99.90;;;;;;5029063;28;20398;-72
2021/10/17 03:49:10;;;;;;;17.58;10.60;;;9.40;99.90;;;;;;5045160;28;20049;-73
2021/10/17 03:51:36;;;;;;;17.30;10.07;;;9.40;99.90;;;;;;5031259;28;20068;-72
2021/10/17 03:54:04;;;;;;;18.52;9.98;;;9.40;99.90;;;;;;5031780;28;20048;-72
2021/10/17 03:56:30;;;;;;;19.58;9.70;;;9.40;99.90;;;;;;5048523;28;20040;-72
2021/10/17 03:58:56;;;;;;;17.13;10.48;;;9.40;99.90;;;;;;5031699;28;20047;-72
2021/10/17 04:01:22;;;;;;;16.33;10.32;;;9.40;99.90;;;;;;5045321;28;20525;-72
2021/10/17 04:03:51;;;;;;;20.95;11.73;;;9.40;99.90;;;;;;5049387;28;20113;-73
2021/10/17 04:06:16;;;;;;;18.85;11.63;;;9.40;99.90;;;;;;5033529;28;20041;-73
2021/10/17 04:08:44;;;;;;;23.58;12.82;;;9.40;99.90;;;;;;5032970;28;20139;-73
2021/10/17 04:11:10;;;;;;;19.67;11.82;;;9.40;99.90;;;;;;5049706;28;20056;-72
2021/10/17 04:13:35;;;;;;;19.77;11.88;;;9.40;99.90;;;;;;5027047;28;20041;-72
2021/10/17 04:16:01;;;;;;;19.85;12.07;;;9.30;99.90;;;;;;5029776;28;20573;-72
2021/10/17 04:18:27;;;;;;;18.58;11.88;;;9.30;99.90;;;;;;5045987;28;20045;-72
2021/10/17 04:20:53;;;;;;;14.38;10.82;;;9.30;99.90;;;;;;5030436;28;20730;-73
2021/10/17 04:23:19;;;;;;;18.23;11.70;;;9.30;99.90;;;;;;5033334;28;20053;-72
2021/10/17 04:25:44;;;;;;;14.90;11.27;;;9.30;99.90;;;;;;5037656;28;20133;-72
2021/10/17 04:28:10;;;;;;;21.60;12.05;;;9.20;99.90;;;;;;5036568;28;20359;-72
2021/10/17 04:30:36;;;;;;;19.50;11.85;;;9.20;99.90;;;;;;5053122;28;20079;-72
2021/10/17 04:33:05;;;;;;;15.40;11.38;;;9.20;99.90;;;;;;5036390;28;20052;-72
2021/10/17 04:35:35;;;;;;;21.80;11.73;;;9.20;99.90;;;;;;5036275;28;20052;-72
2021/10/17 04:38:02;;;;;;;20.40;12.20;;;9.20;99.90;;;;;;5052512;28;20055;-72
2021/10/17 04:40:28;;;;;;;17.05;11.27;;;9.20;99.90;;;;;;5052967;28;20186;-72
2021/10/17 04:42:55;;;;;;;18.45;10.60;;;9.20;99.90;;;;;;5051912;28;20504;-72
2021/10/17 04:45:21;;;;;;;19.85;10.73;;;9.30;99.90;;;;;;5033188;28;20143;-72
2021/10/17 04:47:46;;;;;;;18.48;11.40;;;9.30;99.90;;;;;;5050388;28;20144;-71
2021/10/17 04:50:12;;;;;;;17.95;10.77;;;9.30;99.90;;;;;;5065107;28;20384;-72
2021/10/17 04:52:38;;;;;;;16.27;10.40;;;9.30;99.90;;;;;;5053023;28;20448;-73
2021/10/17 04:55:07;;;;;;;13.77;10.32;;;9.30;99.90;;;;;;5036571;28;20047;-73
2021/10/17 04:57:33;;;;;;;15.83;10.73;;;9.30;99.90;;;;;;5035896;28;20510;-73
2021/10/17 05:00:00;;;;;;;17.45;11.32;;;9.30;99.90;;;;;;5052586;28;20056;-72
2021/10/17 05:02:26;;;;;;;22.15;11.73;;;9.30;99.90;;;;;;5069218;28;20043;-73
2021/10/17 05:04:52;;;;;;;19.70;11.98;;;9.30;99.90;;;;;;5051681;28;20154;-73
2021/10/17 05:07:18;;;;;;;21.10;12.77;;;9.30;99.90;;;;;;5052297;28;20123;-72
2021/10/17 05:09:44;;;;;;;15.10;10.20;;;9.30;99.90;;;;;;5052326;28;20364;-73
2021/10/17 05:12:10;;;;;;;15.35;12.02;;;9.20;99.90;;;;;;5052362;28;20539;-73
2021/10/17 05:14:35;;;;;;;17.60;10.98;;;9.30;99.90;;;;;;5051322;28;20044;-73
2021/10/17 05:17:04;;;;;;;19.40;11.95;;;9.20;99.90;;;;;;5052378;28;20601;-73
2021/10/17 05:19:30;;;;;;;14.88;11.05;;;9.30;99.90;;;;;;5068850;28;20566;-73
2021/10/17 05:21:56;;;;;;;18.48;12.02;;;9.20;99.90;;;;;;5051818;28;20146;-73
2021/10/17 05:24:22;;;;;;;19.92;11.70;;;9.20;99.90;;;;;;5052406;28;20399;-71
2021/10/17 05:26:48;;;;;;;20.50;11.75;;;9.20;99.90;;;;;;5051301;28;20050;-72
2021/10/17 05:29:14;;;;;;;19.88;11.65;;;9.20;99.90;;;;;;5068812;28;20466;-72
2021/10/17 05:31:40;;;;;;;16.92;11.65;;;9.20;99.90;;;;;;5051504;28;20495;-72
2021/10/17 05:34:05;;;;;;;18.13;11.57;;;9.20;99.90;;;;;;5067832;28;20078;-71
2021/10/17 05:36:35;;;;;;;15.35;11.45;;;9.20;99.90;;;;;;5035483;28;20052;-72
2021/10/17 05:39:04;;;;;;;14.95;11.05;;;9.20;99.90;;;;;;5051560;28;20051;-72
2021/10/17 05:41:29;;;;;;;18.45;11.57;;;9.30;99.90;;;;;;5051873;28;20040;-72
2021/10/17 05:43:55;;;;;;;15.30;11.15;;;9.20;99.90;;;;;;5026064;28;20094;-72
2021/10/17 05:46:21;;;;;;;18.10;12.48;;;9.20;99.90;;;;;;5031816;28;20045;-73
2021/10/17 05:48:47;;;;;;;15.60;11.40;;;9.20;99.90;;;;;;5051062;28;20051;-72
2021/10/17 05:51:12;;;;;;;18.17;10.57;;;9.20;99.90;;;;;;5051668;28;20040;-72
2021/10/17 05:53:38;;;;;;;16.92;10.40;;;9.20;99.90;;;;;;5050634;28;20052;-73
2021/10/17 05:56:04;;;;;;;20.55;12.75;;;9.20;99.90;;;;;;5051525;28;20056;-72
2021/10/17 05:58:30;;;;;;;22.08;12.15;;;9.20;99.90;;;;;;5034597;28;20174;-73
2021/10/17 06:00:56;;;;;;;18.33;11.65;;;9.20;99.90;;;;;;5042978;28;20405;-73
2021/10/17 06:03:23;;;;;;;18.58;11.70;;;9.20;99.90;;;;;;5014585;28;20378;-73
2021/10/17 06:05:49;;;;;;;21.20;12.65;;;9.20;99.90;;;;;;5051100;28;20107;-72
2021/10/17 06:08:14;;;;;;;14.45;11.02;;;9.20;99.90;;;;;;5051133;28;20059;-73
2021/10/17 06:10:41;;;;;;;18.52;11.48;;;9.10;99.90;;;;;;5051133;28;20052;-73
2021/10/17 06:13:07;;;;;;;21.15;12.07;;;9.20;99.90;;;;;;5050220;28;20048;-73
2021/10/17 06:15:33;;;;;;;19.23;13.02;;;9.20;99.90;;;;;;5034488;28;20530;-72
2021/10/17 06:17:59;;;;;;;16.67;11.90;;;9.20;99.90;;;;;;5051241;28;20040;-73
2021/10/17 06:20:25;;;;;;;18.58;11.82;;;9.20;99.90;;;;;;5050139;28;20092;-73
2021/10/17 06:22:51;;;;;;;21.20;11.60;;;9.20;99.90;;;;;;5034522;28;20047;-73
2021/10/17 06:25:17;;;;;;;18.45;11.32;;;9.10;99.90;;;;;;5049850;28;20060;-72
2021/10/17 06:27:43;;;;;;;20.35;11.60;;;9.10;99.90;;;;;;5051031;28;20479;-73
2021/10/17 06:30:09;;;;;;;17.30;11.77;;;9.10;99.90;;;;;;5050862;28;20142;-72
2021/10/17 06:32:35;;;;;;;17.65;12.07;;;9.10;99.90;;;;;;5051192;28;20098;-72
2021/10/17 06:35:01;;;;;;;15.70;10.13;;;9.10;99.90;;;;;;5052016;28;20051;-72
2021/10/17 06:37:27;;;;;;;21.00;12.20;;;9.20;99.90;;;;;;5051008;28;20101;-72
2021/10/17 06:39:52;;;;;;;16.98;10.70;;;9.20;99.90;;;;;;5051246;28;20131;-72
2021/10/17 06:42:18;;;;;;;18.48;11.02;;;9.20;99.90;;;;;;5051369;28;20052;-72
2021/10/17 06:44:44;;;;;;;19.23;11.23;;;9.20;99.90;;;;;;5020440;28;20032;-72
2021/10/17 06:47:09;;;;;;;21.45;11.35;;;9.30;99.90;;;;;;5015142;28;20599;-71
2021/10/17 06:49:36;;;;;;;18.88;11.73;;;9.30;99.90;;;;;;5040335;28;20037;-72
2021/10/17 06:52:05;;;;;;;19.77;11.55;;;9.40;99.90;;;;;;5051431;28;20098;-71
2021/10/17 06:54:30;;;;;;;15.75;10.73;;;9.40;99.90;;;;;;5034388;28;20063;-71
2021/10/17 06:56:56;;;;;;;18.20;10.95;;;9.50;99.90;;;;;;5051178;28;20564;-72
2021/10/17 06:59:22;;;;;;;20.02;11.13;;;9.50;99.90;;;;;;5033536;28;20044;-72
2021/10/17 07:01:48;;;;;;;16.75;10.95;;;9.50;99.90;;;;;;5049536;28;21118;-71
2021/10/17 07:04:13;;;;;;;19.33;10.02;;;9.50;99.90;;;;;;5049429;28;20507;-72
2021/10/17 07:06:39;;;;;;;18.73;10.80;;;9.60;99.90;;;;;;5033711;28;20072;-72
2021/10/17 07:09:06;;;;;;;13.75;10.13;;;9.60;99.90;;;;;;5050540;28;20045;-71
2021/10/17 07:11:32;;;;;;;14.80;10.68;;;9.60;99.90;;;;;;5050267;28;20052;-71
2021/10/17 07:13:58;;;;;;;16.65;10.73;;;9.60;99.90;;;;;;5049792;28;20053;-72
2021/10/17 07:16:24;;;;;;;14.98;10.15;;;9.60;99.90;;;;;;5033448;28;20408;-71
2021/10/17 07:18:50;;;;;;;16.88;10.73;;;9.60;99.90;;;;;;5033435;28;20044;-72
2021/10/17 07:21:15;;;;;;;16.38;11.45;;;9.60;99.90;;;;;;5033592;28;20052;-71
2021/10/17 07:23:41;;;;;;;18.02;12.35;;;9.60;99.90;;;;;;5017321;28;20037;-71
2021/10/17 07:26:07;;;;;;;20.02;12.18;;;9.60;99.90;;;;;;5034287;28;20492;-72
2021/10/17 07:28:33;;;;;;;19.88;11.50;;;9.60;99.90;;;;;;5046166;28;20099;-71
2021/10/17 07:30:59;;;;;;;16.90;11.70;;;9.50;99.90;;;;;;5047266;28;20095;-71
2021/10/17 07:33:24;;;;;;;18.80;11.63;;;9.60;99.90;;;;;;5029498;28;20113;-71
2021/10/17 07:35:50;;;;;;;19.02;10.70;;;9.50;99.90;;;;;;5046822;28;20053;-72
2021/10/17 07:38:16;;;;;;;20.88;11.73;;;9.50;99.90;;;;;;5046463;28;20044;-72
2021/10/17 07:40:42;;;;;;;16.92;11.10;;;9.50;99.90;;;;;;5046936;28;20283;-72
2021/10/17 07:43:08;;;;;;;18.95;10.70;;;9.60;99.90;;;;;;5048943;28;20040;-72
2021/10/17 07:45:33;;;;;;;16.77;11.45;;;9.60;99.90;;;;;;5066173;28;20043;-72
2021/10/17 07:47:59;;;;;;;16.60;12.00;;;9.60;99.90;;;;;;5050478;28;20048;-71
2021/10/17 07:50:25;;;;;;;15.98;11.40;;;9.60;99.90;;;;;;5066298;28;20102;-72
2021/10/17 07:52:51;;;;;;;17.55;11.50;;;9.70;99.90;;;;;;5044369;28;20154;-71
2021/10/17 07:55:17;;;;;;;19.48;10.60;;;9.80;99.90;;;;;;5030118;28;20623;-72
2021/10/17 07:57:48;;;;;;;15.70;10.88;;;9.80;99.90;;;;;;5033198;28;20138;-72
2021/10/17 08:00:30;;;;;;;22.17;11.55;;;9.80;99.90;;;;;;5032885;28;20048;-72
2021/10/17 08:02:56;;;;;;;;;;;9.80;99.90;;;;;;5051125;28;20091;-71
2021/10/17 08:05:22;;;;;;;16.58;10.20;;;9.90;99.90;;;;;;5049008;28;20100;-71
2021/10/17 08:07:49;;;;;;;17.27;11.23;;;9.90;99.90;;;;;;5050344;28;20056;-71
2021/10/17 08:10:15;;;;;;;18.75;11.35;;;9.90;99.90;;;;;;5050066;28;20048;-71
2021/10/17 08:12:42;;;;;;;19.75;11.52;;;9.90;99.90;;;;;;5049792;28;20075;-72
2021/10/17 08:15:09;;;;;;;17.92;11.15;;;9.90;99.90;;;;;;5032471;28;20053;-72
2021/10/17 08:17:35;;;;;;;18.70;11.30;;;10.00;99.90;;;;;;5049054;28;20037;-72
2021/10/17 08:20:04;;;;;;;17.05;10.63;;;10.00;99.90;;;;;;5031907;28;20099;-72
2021/10/17 08:22:30;;;;;;;19.17;10.50;;;10.00;99.90;;;;;;5049118;28;20048;-71
2021/10/17 08:24:56;;;;;;;16.33;10.32;;;10.00;99.90;;;;;;5016666;28;20045;-72
2021/10/17 08:27:22;;;;;;;16.95;11.25;;;10.00;99.90;;;;;;5047694;28;20053;-72
2021/10/17 08:29:48;;;;;;;18.73;10.60;;;10.10;99.90;;;;;;5014248;28;20061;-72
2021/10/17 08:32:14;;;;;;;17.33;11.10;;;10.20;99.90;;;;;;5032246;28;20049;-71
2021/10/17 08:34:39;;;;;;;17.80;11.05;;;10.20;99.90;;;;;;5048069;28;20048;-71
2021/10/17 08:37:06;;;;;;;20.75;11.50;;;10.20;99.90;;;;;;5031776;28;20376;-72
2021/10/17 08:39:35;;;;;;;17.35;10.75;;;10.20;99.90;;;;;;5047480;28;20651;-71
2021/10/17 08:42:04;;;;;;;15.85;10.90;;;10.30;99.90;;;;;;5045078;28;20080;-72
2021/10/17 08:44:30;;;;;;;17.45;11.13;;;10.40;99.90;;;;;;5030328;28;20594;-72
2021/10/17 08:46:58;;;;;;;17.23;10.93;;;10.40;99.90;;;;;;5032021;28;20061;-71
2021/10/17 08:49:25;;;;;;;20.35;11.00;;;10.40;99.90;;;;;;5031060;28;20120;-72
2021/10/17 08:51:51;;;;;;;15.98;11.20;;;10.40;99.90;;;;;;5048440;28;20052;-72
2021/10/17 08:54:17;;;;;;;16.83;11.13;;;10.40;99.90;;;;;;5064221;28;20037;-72
2021/10/17 08:56:43;;;;;;;20.08;10.70;;;10.40;99.90;;;;;;5030878;28;20508;-71
2021/10/17 08:59:08;;;;;;;16.00;10.20;;;10.40;99.90;;;;;;5047932;28;20041;-70
2021/10/17 09:01:38;;;;;;;19.38;10.88;;;10.50;99.90;;;;;;5029798;28;20529;-70
2021/10/17 09:04:06;;;;;;;15.27;10.30;;;10.50;99.90;;;;;;5046736;28;20045;-70
2021/10/17 09:06:37;;;;;;;18.50;10.60;;;10.50;99.90;;;;;;5045729;28;20050;-70
2021/10/17 09:09:12;;;;;;;17.58;9.98;;;10.50;99.90;;;;;;5030498;28;20051;-70
2021/10/17 09:11:43;;;;;;;14.88;10.65;;;10.50;99.90;;;;;;5047229;28;20371;-70
2021/10/17 09:14:15;;;;;;;19.70;10.45;;;10.60;99.90;;;;;;5028485;28;20446;-70
2021/10/17 09:16:43;;;;;;;20.17;10.80;;;10.70;99.90;;;;;;5030640;28;20128;-70
2021/10/17 09:19:10;;;;;;;15.75;10.73;;;10.70;99.90;;;;;;5047253;28;20044;-70
2021/10/17 09:21:37;;;;;;;19.02;11.23;;;10.80;99.90;;;;;;5063274;28;20037;-71
2021/10/17 09:24:03;;;;;;;15.38;10.82;;;10.80;99.90;;;;;;5014587;28;20041;-71
2021/10/17 09:26:29;;;;;;;15.52;10.07;;;10.80;99.90;;;;;;5047019;28;20391;-71
2021/10/17 09:28:55;;;;;;;15.55;11.05;;;10.90;99.90;;;;;;5030881;28;20045;-71
2021/10/17 09:31:21;;;;;;;18.13;10.15;;;10.80;99.90;;;;;;5031171;28;20052;-71
2021/10/17 09:33:52;;;;;;;16.88;10.55;;;10.90;99.90;;;;;;5046852;28;20052;-71
2021/10/17 09:36:29;;;;;;;19.75;10.88;;;10.90;99.90;;;;;;5063303;28;20049;-71
2021/10/17 09:39:17;;;;;;;15.25;10.30;;;10.80;99.90;;;;;;5046966;28;20525;-71
2021/10/17 09:41:53;;;;;;;13.90;10.35;;;10.90;99.90;;;;;;5027096;28;20033;-71
2021/10/17 09:44:19;;;;;;;15.27;10.05;;;10.80;99.90;;;;;;5046271;28;20155;-71
2021/10/17 09:46:57;;;;;;;17.48;11.15;;;10.80;99.90;;;;;;5063159;28;20043;-71
2021/10/17 09:49:23;;;;;;;16.65;10.45;;;10.90;99.90;;;;;;5047419;28;20056;-71
2021/10/17 09:52:08;;;;;;;16.65;10.18;;;10.90;99.90;;;;;;5027654;28;20560;-72
2021/10/17 09:54:34;;;;;;;15.90;10.35;;;10.90;99.90;;;;;;5049628;28;20044;-71
2021/10/17 09:57:05;;;;;;;15.13;9.73;;;10.80;99.90;;;;;;5032466;28;20055;-71
2021/10/17 09:59:31;;;;;;;18.92;10.38;;;10.80;99.90;;;;;;5033119;28;20050;-71
2021/10/17 10:01:57;;;;;;;18.60;9.90;;;10.80;99.90;;;;;;5030132;28;20071;-71
2021/10/17 10:04:24;;;;;;;16.08;9.50;;;10.90;99.90;;;;;;5049393;28;20503;-72
2021/10/17 10:06:52;;;;;;;16.15;10.45;;;10.90;99.90;;;;;;5032625;28;20399;-72
2021/10/17 10:09:21;;;;;;;17.20;10.35;;;10.90;99.90;;;;;;5050185;28;20040;-71
2021/10/17 10:11:49;;;;;;;17.95;10.07;;;10.90;99.90;;;;;;5047952;28;20043;-71
2021/10/17 10:14:15;;;;;;;17.35;10.57;;;10.90;99.90;;;;;;5048190;28;20110;-71
2021/10/17 10:16:42;;;;;;;15.85;10.45;;;10.90;99.90;;;;;;5032875;28;20048;-71
2021/10/17 10:19:09;;;;;;;16.25;10.48;;;10.90;99.90;;;;;;5049071;28;20415;-71
2021/10/17 10:21:39;;;;;;;15.13;9.70;;;11.00;99.90;;;;;;5049097;28;20548;-70
2021/10/17 10:24:07;;;;;;;13.50;9.70;;;11.00;99.90;;;;;;5048827;28;20041;-71
2021/10/17 10:26:35;;;;;;;13.10;9.55;;;11.10;99.90;;;;;;5049556;28;20106;-70
2021/10/17 10:29:04;;;;;;;16.50;8.93;;;11.10;99.90;;;;;;5033824;28;20052;-71
2021/10/17 10:31:56;;;;;;;17.55;10.10;;;11.20;99.90;;;;;;5028731;28;20106;-71
2021/10/17 10:34:21;;;;;;;16.83;9.93;;;11.20;99.90;;;;;;5031158;28;20037;-71
2021/10/17 10:36:52;;;;;;;16.23;9.27;;;11.20;99.90;;;;;;5033334;28;20085;-71
2021/10/17 10:39:21;;;;;;;14.52;9.18;;;11.20;99.90;;;;;;5048561;28;20041;-71
2021/10/17 10:42:16;;;;;;;14.93;8.93;;;11.20;99.90;;;;;;5048695;28;20044;-71
2021/10/17 10:44:42;;;;;;;14.95;8.70;;;11.20;99.90;;;;;;5046308;28;20069;-71
2021/10/17 10:47:28;;;;;;;13.63;8.77;;;11.20;99.90;;;;;;5048365;28;20069;-71
2021/10/17 10:49:58;;;;;;;13.45;9.43;;;11.20;99.90;;;;;;5048659;28;20161;-71
2021/10/17 10:52:24;;;;;;;14.88;8.40;;;11.20;99.90;;;;;;5030890;28;20047;-72
2021/10/17 10:55:03;;;;;;;15.07;9.32;;;11.20;99.90;;;;;;5048118;28;20052;-71
2021/10/17 10:57:40;;;;;;;14.32;8.85;;;11.30;99.90;;;;;;5049572;28;20041;-71
2021/10/17 11:00:13;;;;;;;14.85;9.25;;;11.30;99.90;;;;;;5049187;28;20063;-71
2021/10/17 11:02:59;;;;;;;16.33;9.40;;;11.40;99.90;;;;;;5028930;28;20045;-71
2021/10/17 11:05:27;;;;;;;18.35;9.20;;;11.40;99.90;;;;;;5031020;28;20248;-71
2021/10/17 11:08:13;;;;;;;14.75;9.65;;;11.50;99.90;;;;;;5048232;28;20044;-71
2021/10/17 11:10:41;;;;;;;13.93;8.15;;;11.60;99.90;;;;;;5048771;28;20040;-71
2021/10/17 11:13:09;;;;;;;17.27;8.50;;;11.60;99.90;;;;;;5048420;28;20036;-71
2021/10/17 11:15:37;;;;;;;17.50;10.13;;;11.70;99.90;;;;;;5049123;28;20044;-71
2021/10/17 11:18:13;;;;;;;14.80;8.23;;;11.80;99.90;;;;;;5048758;28;20044;-70
2021/10/17 11:20:46;;;;;;;14.93;8.05;;;11.80;99.90;;;;;;5029566;28;20052;-71
2021/10/17 11:23:21;;;;;;;14.23;7.82;;;11.90;99.90;;;;;;5031316;28;20048;-71
2021/10/17 11:26:00;;;;;;;18.00;8.55;;;11.90;99.90;;;;;;5048473;28;20044;-71
2021/10/17 11:28:28;;;;;;;12.27;8.10;;;12.00;99.90;;;;;;5049081;28;20092;-71
2021/10/17 11:31:11;;;;;;;12.07;8.05;;;12.10;99.90;;;;;;5028766;28;20161;-70
2021/10/17 11:33:39;;;;;;;14.02;8.48;;;12.10;99.90;;;;;;5052413;28;20550;-71
2021/10/17 11:36:06;;;;;;;14.52;9.07;;;12.10;99.90;;;;;;5052649;28;20142;-71
2021/10/17 11:38:32;;;;;;;14.45;7.93;;;12.10;99.90;;;;;;5035864;28;20526;-71
2021/10/17 11:41:10;;;;;;;14.20;7.35;;;12.20;99.90;;;;;;5052064;28;20080;-71
2021/10/17 11:43:43;;;;;;;14.43;7.45;;;12.20;99.90;;;;;;5035783;28;20044;-70
2021/10/17 11:46:12;;;;;;;11.90;8.18;;;12.20;99.90;;;;;;5033322;28;20162;-70
2021/10/17 11:48:40;;;;;;;12.68;7.28;;;12.30;99.90;;;;;;5035508;28;20446;-71
2021/10/17 11:51:08;;;;;;;13.50;7.15;;;12.20;99.90;;;;;;5035919;28;20055;-71
2021/10/17 11:53:34;;;;;;;14.70;7.75;;;12.30;99.90;;;;;;5048432;28;20080;-71
2021/10/17 11:56:00;;;;;;;13.82;7.47;;;12.30;99.90;;;;;;5054124;28;20132;-71
2021/10/17 11:58:28;;;;;;;11.65;7.15;;;12.30;99.90;;;;;;5033450;28;20072;-71
2021/10/17 12:01:06;;;;;;;17.65;7.53;;;12.30;99.90;;;;;;5048193;28;20462;-72
2021/10/17 12:03:32;;;;;;;16.88;7.03;;;12.30;99.90;;;;;;5047658;28;20547;-71
2021/10/17 12:06:00;;;;;;;10.90;6.82;;;12.40;99.90;;;;;;5032388;28;20535;-72
2021/10/17 12:08:34;;;;;;;12.60;7.65;;;12.40;99.90;;;;;;5032614;28;20458;-71
2021/10/17 12:11:05;;;;;;;15.45;6.95;;;12.40;99.90;;;;;;5048568;28;20519;-72
2021/10/17 12:13:55;;;;;;;14.60;7.50;;;12.40;99.90;;;;;;5032174;28;20040;-71
2021/10/17 12:16:24;;;;;;;16.02;7.95;;;12.40;99.90;;;;;;5043385;28;20056;-71
2021/10/17 12:18:53;;;;;;;11.38;7.32;;;12.50;99.90;;;;;;5032084;28;20040;-71
2021/10/17 12:21:24;;;;;;;16.23;7.70;;;12.50;99.90;;;;;;5046561;28;20076;-71
2021/10/17 12:23:52;;;;;;;12.27;7.43;;;12.60;99.90;;;;;;5032313;28;20037;-73
2021/10/17 12:26:21;;;;;;;11.70;6.97;;;12.60;99.90;;;;;;5049572;28;20099;-71
2021/10/17 12:29:09;;;;;;;10.10;7.30;;;12.70;99.90;;;;;;5049189;28;20037;-71
2021/10/17 12:31:41;;;;;;;14.35;6.82;;;12.70;99.90;;;;;;5048203;28;20311;-71
2021/10/17 12:34:10;;;;;;;12.13;7.00;;;12.80;99.90;;;;;;5032491;28;20044;-71
2021/10/17 12:36:38;;;;;;;10.85;6.95;;;12.80;99.90;;;;;;5014775;28;20033;-71
2021/10/17 12:39:10;;;;;;;13.32;7.43;;;12.90;99.90;;;;;;5008470;28;20069;-71